sensor_id;sensor_type;location;lat;lon;timestamp;P1;durP1;ratioP1;P2;durP2;ratioP2
54143;SDS011;40050;47.324;18.792;2022-09-09T00:00:55;2.33;;;2.34;;
54143;SDS011;40050;47.324;18.792;2022-09-09T00:03:12;3.77;;;2.34;;
54143;SDS011;40050;47.324;18.792;2022-09-09T00:05:12;2.78;;;2.44;;
54143;SDS011;40050;47.324;18.792;2022-09-09T00:07:20;3.49;;;2.34;;
54143;SDS011;40050;47.324;18.792;2022-09-09T00:09:17;2.77;;;2.43;;
54143;SDS011;40050;47.324;18.792;2022-09-09T00:11:27;5.64;;;2.72;;
54143;SDS011;40050;47.324;18.792;2022-09-09T00:13:50;3.58;;;3.02;;
54143;SDS011;40050;47.324;18.792;2022-09-09T00:16:12;4.83;;;3.01;;
54143;SDS011;40050;47.324;18.792;2022-09-09T00:18:06;6.55;;;3.02;;
54143;SDS011;40050;47.324;18.792;2022-09-09T00:22:32;4.39;;;3.02;;
54143;SDS011;40050;47.324;18.792;2022-09-09T00:24:55;4.47;;;3.01;;
54143;SDS011;40050;47.324;18.792;2022-09-09T00:27:25;3.48;;;2.92;;
54143;SDS011;40050;47.324;18.792;2022-09-09T00:29:24;3.66;;;3.01;;
54143;SDS011;40050;47.324;18.792;2022-09-09T00:31:26;4.00;;;3.20;;
54143;SDS011;40050;47.324;18.792;2022-09-09T00:33:29;3.12;;;2.72;;
54143;SDS011;40050;47.324;18.792;2022-09-09T00:35:36;6.22;;;3.01;;
54143;SDS011;40050;47.324;18.792;2022-09-09T00:37:35;3.65;;;3.01;;
54143;SDS011;40050;47.324;18.792;2022-09-09T00:39:37;4.18;;;3.01;;
54143;SDS011;40050;47.324;18.792;2022-09-09T00:43:56;6.32;;;3.01;;
54143;SDS011;40050;47.324;18.792;2022-09-09T00:48:14;4.63;;;3.20;;
54143;SDS011;40050;47.324;18.792;2022-09-09T00:52:49;6.32;;;3.20;;
54143;SDS011;40050;47.324;18.792;2022-09-09T00:55:14;3.83;;;2.91;;
54143;SDS011;40050;47.324;18.792;2022-09-09T00:59:31;3.65;;;3.01;;
54143;SDS011;40050;47.324;18.792;2022-09-09T01:01:17;4.01;;;3.11;;
54143;SDS011;40050;47.324;18.792;2022-09-09T01:03:37;4.10;;;3.50;;
54143;SDS011;40050;47.324;18.792;2022-09-09T01:05:54;5.88;;;3.11;;
54143;SDS011;40050;47.324;18.792;2022-09-09T01:07:50;4.54;;;3.11;;
54143;SDS011;40050;47.324;18.792;2022-09-09T01:09:58;5.52;;;3.11;;
54143;SDS011;40050;47.324;18.792;2022-09-09T01:12:14;6.76;;;3.30;;
54143;SDS011;40050;47.324;18.792;2022-09-09T01:16:15;5.50;;;3.10;;
54143;SDS011;40050;47.324;18.792;2022-09-09T01:18:32;3.99;;;2.81;;
54143;SDS011;40050;47.324;18.792;2022-09-09T01:23:08;4.28;;;2.72;;
54143;SDS011;40050;47.324;18.792;2022-09-09T01:27:09;3.29;;;2.72;;
54143;SDS011;40050;47.324;18.792;2022-09-09T01:29:14;6.31;;;2.52;;
54143;SDS011;40050;47.324;18.792;2022-09-09T01:31:14;3.38;;;2.72;;
54143;SDS011;40050;47.324;18.792;2022-09-09T01:33:15;3.37;;;2.81;;
54143;SDS011;40050;47.324;18.792;2022-09-09T01:37:30;3.44;;;2.61;;
54143;SDS011;40050;47.324;18.792;2022-09-09T01:39:31;3.08;;;2.90;;
54143;SDS011;40050;47.324;18.792;2022-09-09T01:41:32;3.00;;;3.00;;
54143;SDS011;40050;47.324;18.792;2022-09-09T01:43:33;4.59;;;3.00;;
54143;SDS011;40050;47.324;18.792;2022-09-09T01:45:35;5.58;;;3.49;;
54143;SDS011;40050;47.324;18.792;2022-09-09T01:47:36;4.08;;;3.39;;
54143;SDS011;40050;47.324;18.792;2022-09-09T01:49:39;4.61;;;3.49;;
54143;SDS011;40050;47.324;18.792;2022-09-09T01:51:40;3.99;;;3.49;;
54143;SDS011;40050;47.324;18.792;2022-09-09T01:53:42;6.21;;;3.49;;
54143;SDS011;40050;47.324;18.792;2022-09-09T01:56:07;3.45;;;3.39;;
54143;SDS011;40050;47.324;18.792;2022-09-09T02:00:13;7.34;;;3.19;;
54143;SDS011;40050;47.324;18.792;2022-09-09T02:02:33;4.33;;;3.19;;
54143;SDS011;40050;47.324;18.792;2022-09-09T02:04:39;3.71;;;2.90;;
54143;SDS011;40050;47.324;18.792;2022-09-09T02:06:44;9.11;;;3.10;;
54143;SDS011;40050;47.324;18.792;2022-09-09T02:08:49;4.34;;;2.91;;
54143;SDS011;40050;47.324;18.792;2022-09-09T02:11:07;5.03;;;3.10;;
54143;SDS011;40050;47.324;18.792;2022-09-09T02:13:03;3.53;;;2.90;;
54143;SDS011;40050;47.324;18.792;2022-09-09T02:15:07;3.26;;;2.71;;
54143;SDS011;40050;47.324;18.792;2022-09-09T02:17:11;4.05;;;3.09;;
54143;SDS011;40050;47.324;18.792;2022-09-09T02:19:34;3.88;;;3.00;;
54143;SDS011;40050;47.324;18.792;2022-09-09T02:21:31;3.62;;;2.90;;
54143;SDS011;40050;47.324;18.792;2022-09-09T02:23:32;3.18;;;3.00;;
54143;SDS011;40050;47.324;18.792;2022-09-09T02:25:35;3.36;;;2.81;;
54143;SDS011;40050;47.324;18.792;2022-09-09T02:27:37;5.13;;;2.71;;
54143;SDS011;40050;47.324;18.792;2022-09-09T02:29:42;4.69;;;2.91;;
54143;SDS011;40050;47.324;18.792;2022-09-09T02:31:43;2.75;;;2.71;;
54143;SDS011;40050;47.324;18.792;2022-09-09T02:33:56;4.87;;;2.81;;
54143;SDS011;40050;47.324;18.792;2022-09-09T02:35:48;3.37;;;3.00;;
54143;SDS011;40050;47.324;18.792;2022-09-09T02:37:51;4.17;;;3.00;;
54143;SDS011;40050;47.324;18.792;2022-09-09T02:39:52;5.49;;;3.10;;
54143;SDS011;40050;47.324;18.792;2022-09-09T02:41:59;3.37;;;2.91;;
54143;SDS011;40050;47.324;18.792;2022-09-09T02:44:14;2.74;;;2.71;;
54143;SDS011;40050;47.324;18.792;2022-09-09T02:49:02;2.30;;;2.32;;
54143;SDS011;40050;47.324;18.792;2022-09-09T02:51:14;2.38;;;2.42;;
54143;SDS011;40050;47.324;18.792;2022-09-09T02:53:40;4.41;;;2.03;;
54143;SDS011;40050;47.324;18.792;2022-09-09T02:57:44;3.27;;;2.42;;
54143;SDS011;40050;47.324;18.792;2022-09-09T02:59:45;2.21;;;2.23;;
54143;SDS011;40050;47.324;18.792;2022-09-09T03:01:46;3.80;;;2.32;;
54143;SDS011;40050;47.324;18.792;2022-09-09T03:03:47;2.12;;;1.93;;
54143;SDS011;40050;47.324;18.792;2022-09-09T03:05:48;3.89;;;2.52;;
54143;SDS011;40050;47.324;18.792;2022-09-09T03:07:50;3.45;;;2.13;;
54143;SDS011;40050;47.324;18.792;2022-09-09T03:09:51;2.21;;;2.03;;
54143;SDS011;40050;47.324;18.792;2022-09-09T03:11:51;3.71;;;2.23;;
54143;SDS011;40050;47.324;18.792;2022-09-09T03:13:52;2.57;;;1.94;;
54143;SDS011;40050;47.324;18.792;2022-09-09T03:15:53;2.57;;;2.13;;
54143;SDS011;40050;47.324;18.792;2022-09-09T03:17:54;2.30;;;2.32;;
54143;SDS011;40050;47.324;18.792;2022-09-09T03:19:55;3.98;;;2.03;;
54143;SDS011;40050;47.324;18.792;2022-09-09T03:21:57;3.98;;;1.84;;
54143;SDS011;40050;47.324;18.792;2022-09-09T03:23:57;3.63;;;2.23;;
54143;SDS011;40050;47.324;18.792;2022-09-09T03:25:58;2.84;;;2.04;;
54143;SDS011;40050;47.324;18.792;2022-09-09T03:27:59;5.67;;;1.94;;
54143;SDS011;40050;47.324;18.792;2022-09-09T03:30:00;2.84;;;1.84;;
54143;SDS011;40050;47.324;18.792;2022-09-09T03:32:01;4.44;;;1.84;;
54143;SDS011;40050;47.324;18.792;2022-09-09T03:34:02;2.75;;;1.94;;
54143;SDS011;40050;47.324;18.792;2022-09-09T03:36:03;2.04;;;1.84;;
54143;SDS011;40050;47.324;18.792;2022-09-09T03:38:04;3.28;;;1.94;;
54143;SDS011;40050;47.324;18.792;2022-09-09T03:40:05;2.66;;;1.75;;
54143;SDS011;40050;47.324;18.792;2022-09-09T03:42:06;1.95;;;1.65;;
54143;SDS011;40050;47.324;18.792;2022-09-09T03:44:07;4.00;;;2.04;;
54143;SDS011;40050;47.324;18.792;2022-09-09T03:46:11;2.58;;;1.94;;
54143;SDS011;40050;47.324;18.792;2022-09-09T03:48:12;2.40;;;1.94;;
54143;SDS011;40050;47.324;18.792;2022-09-09T03:50:12;2.93;;;1.94;;
54143;SDS011;40050;47.324;18.792;2022-09-09T03:52:14;2.13;;;2.04;;
54143;SDS011;40050;47.324;18.792;2022-09-09T03:54:14;2.22;;;2.23;;
54143;SDS011;40050;47.324;18.792;2022-09-09T03:56:16;2.48;;;2.23;;
54143;SDS011;40050;47.324;18.792;2022-09-09T03:58:17;4.08;;;2.23;;
54143;SDS011;40050;47.324;18.792;2022-09-09T04:00:18;3.81;;;2.23;;
54143;SDS011;40050;47.324;18.792;2022-09-09T04:02:19;3.36;;;2.13;;
54143;SDS011;40050;47.324;18.792;2022-09-09T04:04:20;3.98;;;2.32;;
54143;SDS011;40050;47.324;18.792;2022-09-09T04:06:21;3.27;;;2.61;;
54143;SDS011;40050;47.324;18.792;2022-09-09T04:08:22;7.69;;;2.81;;
54143;SDS011;40050;47.324;18.792;2022-09-09T04:10:23;2.83;;;2.61;;
54143;SDS011;40050;47.324;18.792;2022-09-09T04:12:25;3.10;;;2.52;;
54143;SDS011;40050;47.324;18.792;2022-09-09T04:14:25;3.71;;;2.42;;
54143;SDS011;40050;47.324;18.792;2022-09-09T04:16:28;3.53;;;2.61;;
54143;SDS011;40050;47.324;18.792;2022-09-09T04:18:29;2.73;;;2.51;;
54143;SDS011;40050;47.324;18.792;2022-09-09T04:20:29;6.08;;;2.61;;
54143;SDS011;40050;47.324;18.792;2022-09-09T04:22:30;5.47;;;2.90;;
54143;SDS011;40050;47.324;18.792;2022-09-09T04:24:31;3.96;;;2.71;;
54143;SDS011;40050;47.324;18.792;2022-09-09T04:26:34;3.52;;;2.61;;
54143;SDS011;40050;47.324;18.792;2022-09-09T04:28:35;2.73;;;2.32;;
54143;SDS011;40050;47.324;18.792;2022-09-09T04:30:38;2.72;;;2.41;;
54143;SDS011;40050;47.324;18.792;2022-09-09T04:32:39;4.05;;;2.51;;
54143;SDS011;40050;47.324;18.792;2022-09-09T04:34:40;3.97;;;2.61;;
54143;SDS011;40050;47.324;18.792;2022-09-09T04:36:41;3.62;;;2.52;;
54143;SDS011;40050;47.324;18.792;2022-09-09T04:38:42;3.36;;;2.61;;
54143;SDS011;40050;47.324;18.792;2022-09-09T04:40:43;4.15;;;2.81;;
54143;SDS011;40050;47.324;18.792;2022-09-09T04:42:44;3.97;;;2.42;;
54143;SDS011;40050;47.324;18.792;2022-09-09T04:44:45;3.17;;;2.42;;
54143;SDS011;40050;47.324;18.792;2022-09-09T04:46:49;3.35;;;2.80;;
54143;SDS011;40050;47.324;18.792;2022-09-09T04:48:47;4.58;;;2.61;;
54143;SDS011;40050;47.324;18.792;2022-09-09T04:50:57;3.17;;;2.80;;
54143;SDS011;40050;47.324;18.792;2022-09-09T04:54:49;3.08;;;2.71;;
54143;SDS011;40050;47.324;18.792;2022-09-09T04:56:50;4.06;;;2.81;;
54143;SDS011;40050;47.324;18.792;2022-09-09T04:58:51;3.79;;;3.19;;
54143;SDS011;40050;47.324;18.792;2022-09-09T05:00:52;3.53;;;2.71;;
54143;SDS011;40050;47.324;18.792;2022-09-09T05:02:53;3.80;;;2.91;;
54143;SDS011;40050;47.324;18.792;2022-09-09T05:04:54;7.86;;;2.90;;
54143;SDS011;40050;47.324;18.792;2022-09-09T05:06:55;2.83;;;2.71;;
54143;SDS011;40050;47.324;18.792;2022-09-09T05:08:56;4.79;;;3.10;;
54143;SDS011;40050;47.324;18.792;2022-09-09T05:10:57;3.64;;;3.00;;
54143;SDS011;40050;47.324;18.792;2022-09-09T05:12:58;3.62;;;3.19;;
54143;SDS011;40050;47.324;18.792;2022-09-09T05:14:59;4.88;;;3.59;;
54143;SDS011;40050;47.324;18.792;2022-09-09T05:16:59;5.30;;;3.68;;
54143;SDS011;40050;47.324;18.792;2022-09-09T05:19:00;4.93;;;3.77;;
54143;SDS011;40050;47.324;18.792;2022-09-09T05:21:01;3.98;;;3.78;;
54143;SDS011;40050;47.324;18.792;2022-09-09T05:23:02;6.79;;;3.87;;
54143;SDS011;40050;47.324;18.792;2022-09-09T05:25:03;6.69;;;3.87;;
54143;SDS011;40050;47.324;18.792;2022-09-09T05:27:04;4.85;;;3.96;;
54143;SDS011;40050;47.324;18.792;2022-09-09T05:29:06;3.89;;;3.68;;
54143;SDS011;40050;47.324;18.792;2022-09-09T05:31:08;4.32;;;3.58;;
54143;SDS011;40050;47.324;18.792;2022-09-09T05:33:08;4.41;;;3.58;;
54143;SDS011;40050;47.324;18.792;2022-09-09T05:35:08;4.95;;;3.68;;
54143;SDS011;40050;47.324;18.792;2022-09-09T05:37:09;6.38;;;3.39;;
54143;SDS011;40050;47.324;18.792;2022-09-09T05:39:11;5.13;;;3.39;;
54143;SDS011;40050;47.324;18.792;2022-09-09T05:41:17;5.22;;;3.68;;
54143;SDS011;40050;47.324;18.792;2022-09-09T05:43:19;5.82;;;3.87;;
54143;SDS011;40050;47.324;18.792;2022-09-09T05:45:19;4.58;;;3.58;;
54143;SDS011;40050;47.324;18.792;2022-09-09T05:47:20;5.36;;;3.77;;
54143;SDS011;40050;47.324;18.792;2022-09-09T05:49:22;5.67;;;3.68;;
54143;SDS011;40050;47.324;18.792;2022-09-09T05:51:26;4.86;;;3.19;;
54143;SDS011;40050;47.324;18.792;2022-09-09T05:53:27;3.73;;;3.20;;
54143;SDS011;40050;47.324;18.792;2022-09-09T05:55:28;3.98;;;3.10;;
54143;SDS011;40050;47.324;18.792;2022-09-09T05:57:28;4.18;;;2.91;;
54143;SDS011;40050;47.324;18.792;2022-09-09T05:59:29;5.67;;;3.10;;
54143;SDS011;40050;47.324;18.792;2022-09-09T06:01:37;4.95;;;2.90;;
54143;SDS011;40050;47.324;18.792;2022-09-09T06:03:41;5.37;;;3.57;;
54143;SDS011;40050;47.324;18.792;2022-09-09T06:05:41;4.40;;;3.48;;
54143;SDS011;40050;47.324;18.792;2022-09-09T06:07:42;4.22;;;3.28;;
54143;SDS011;40050;47.324;18.792;2022-09-09T06:09:54;4.93;;;3.57;;
54143;SDS011;40050;47.324;18.792;2022-09-09T06:11:54;4.59;;;3.58;;
54143;SDS011;40050;47.324;18.792;2022-09-09T06:13:55;6.87;;;3.58;;
54143;SDS011;40050;47.324;18.792;2022-09-09T06:15:56;3.88;;;3.19;;
54143;SDS011;40050;47.324;18.792;2022-09-09T06:17:57;4.69;;;3.29;;
54143;SDS011;40050;47.324;18.792;2022-09-09T06:19:57;4.07;;;3.10;;
54143;SDS011;40050;47.324;18.792;2022-09-09T06:22:02;3.90;;;3.10;;
54143;SDS011;40050;47.324;18.792;2022-09-09T06:24:03;3.75;;;2.72;;
54143;SDS011;40050;47.324;18.792;2022-09-09T06:26:05;2.95;;;2.63;;
54143;SDS011;40050;47.324;18.792;2022-09-09T06:28:05;4.57;;;3.02;;
54143;SDS011;40050;47.324;18.792;2022-09-09T06:30:06;5.12;;;2.83;;
54143;SDS011;40050;47.324;18.792;2022-09-09T06:32:08;5.33;;;2.83;;
54143;SDS011;40050;47.324;18.792;2022-09-09T06:34:10;3.60;;;2.73;;
54143;SDS011;40050;47.324;18.792;2022-09-09T06:36:15;4.41;;;2.73;;
54143;SDS011;40050;47.324;18.792;2022-09-09T06:38:15;4.42;;;2.73;;
54143;SDS011;40050;47.324;18.792;2022-09-09T06:40:16;3.28;;;2.45;;
54143;SDS011;40050;47.324;18.792;2022-09-09T06:42:17;3.11;;;2.25;;
54143;SDS011;40050;47.324;18.792;2022-09-09T06:44:18;4.22;;;2.36;;
54143;SDS011;40050;47.324;18.792;2022-09-09T06:46:37;2.74;;;2.65;;
54143;SDS011;40050;47.324;18.792;2022-09-09T06:48:35;3.55;;;2.64;;
54143;SDS011;40050;47.324;18.792;2022-09-09T06:50:36;3.11;;;2.65;;
54143;SDS011;40050;47.324;18.792;2022-09-09T06:52:37;3.55;;;2.35;;
54143;SDS011;40050;47.324;18.792;2022-09-09T06:54:38;3.47;;;2.45;;
54143;SDS011;40050;47.324;18.792;2022-09-09T06:56:54;2.48;;;2.06;;
54143;SDS011;40050;47.324;18.792;2022-09-09T06:58:56;2.40;;;2.26;;
54143;SDS011;40050;47.324;18.792;2022-09-09T07:01:05;2.66;;;2.26;;
54143;SDS011;40050;47.324;18.792;2022-09-09T07:02:57;4.04;;;2.45;;
54143;SDS011;40050;47.324;18.792;2022-09-09T07:04:58;3.39;;;2.45;;
54143;SDS011;40050;47.324;18.792;2022-09-09T07:06:59;5.03;;;2.45;;
54143;SDS011;40050;47.324;18.792;2022-09-09T07:09:02;2.76;;;2.16;;
54143;SDS011;40050;47.324;18.792;2022-09-09T07:11:02;3.40;;;2.46;;
54143;SDS011;40050;47.324;18.792;2022-09-09T07:13:02;2.49;;;2.06;;
54143;SDS011;40050;47.324;18.792;2022-09-09T07:15:03;2.76;;;2.36;;
54143;SDS011;40050;47.324;18.792;2022-09-09T07:17:04;3.24;;;2.07;;
54143;SDS011;40050;47.324;18.792;2022-09-09T07:19:05;5.53;;;2.16;;
54143;SDS011;40050;47.324;18.792;2022-09-09T07:21:07;3.23;;;2.36;;
54143;SDS011;40050;47.324;18.792;2022-09-09T07:23:07;3.32;;;2.16;;
54143;SDS011;40050;47.324;18.792;2022-09-09T07:25:08;2.58;;;2.46;;
54143;SDS011;40050;47.324;18.792;2022-09-09T07:27:10;4.90;;;2.16;;
54143;SDS011;40050;47.324;18.792;2022-09-09T07:29:11;2.88;;;2.07;;
54143;SDS011;40050;47.324;18.792;2022-09-09T07:31:19;4.45;;;1.87;;
54143;SDS011;40050;47.324;18.792;2022-09-09T07:33:13;2.70;;;2.07;;
54143;SDS011;40050;47.324;18.792;2022-09-09T07:35:14;5.47;;;1.87;;
54143;SDS011;40050;47.324;18.792;2022-09-09T07:37:15;2.78;;;1.77;;
54143;SDS011;40050;47.324;18.792;2022-09-09T07:41:20;2.46;;;1.49;;
54143;SDS011;40050;47.324;18.792;2022-09-09T07:45:20;3.05;;;1.49;;
54143;SDS011;40050;47.324;18.792;2022-09-09T07:47:24;1.53;;;1.39;;
54143;SDS011;40050;47.324;18.792;2022-09-09T07:49:25;3.14;;;1.49;;
54143;SDS011;40050;47.324;18.792;2022-09-09T07:51:41;1.91;;;1.39;;
54143;SDS011;40050;47.324;18.792;2022-09-09T07:53:41;2.76;;;1.49;;
54143;SDS011;40050;47.324;18.792;2022-09-09T07:55:42;3.26;;;1.39;;
54143;SDS011;40050;47.324;18.792;2022-09-09T07:57:43;1.92;;;1.39;;
54143;SDS011;40050;47.324;18.792;2022-09-09T07:59:44;2.31;;;1.39;;
54143;SDS011;40050;47.324;18.792;2022-09-09T08:01:50;1.54;;;1.49;;
54143;SDS011;40050;47.324;18.792;2022-09-09T08:03:55;2.31;;;1.39;;
54143;SDS011;40050;47.324;18.792;2022-09-09T08:05:51;2.22;;;1.39;;
54143;SDS011;40050;47.324;18.792;2022-09-09T08:07:52;1.16;;;1.10;;
54143;SDS011;40050;47.324;18.792;2022-09-09T08:09:53;3.21;;;1.10;;
54143;SDS011;40050;47.324;18.792;2022-09-09T08:11:56;1.26;;;1.00;;
54143;SDS011;40050;47.324;18.792;2022-09-09T08:13:56;3.50;;;1.30;;
54143;SDS011;40050;47.324;18.792;2022-09-09T08:17:58;1.56;;;1.10;;
54143;SDS011;40050;47.324;18.792;2022-09-09T08:19:59;2.05;;;1.20;;
54143;SDS011;40050;47.324;18.792;2022-09-09T08:22:02;1.76;;;1.10;;
54143;SDS011;40050;47.324;18.792;2022-09-09T08:24:03;1.47;;;1.00;;
54143;SDS011;40050;47.324;18.792;2022-09-09T08:26:04;1.66;;;1.00;;
54143;SDS011;40050;47.324;18.792;2022-09-09T08:28:04;1.18;;;0.90;;
54143;SDS011;40050;47.324;18.792;2022-09-09T08:30:05;1.28;;;0.90;;
54143;SDS011;40050;47.324;18.792;2022-09-09T08:32:20;1.08;;;0.90;;
54143;SDS011;40050;47.324;18.792;2022-09-09T08:34:21;1.38;;;1.00;;
54143;SDS011;40050;47.324;18.792;2022-09-09T08:36:23;1.87;;;1.40;;
54143;SDS011;40050;47.324;18.792;2022-09-09T08:38:24;1.38;;;1.00;;
54143;SDS011;40050;47.324;18.792;2022-09-09T08:40:26;4.63;;;0.90;;
54143;SDS011;40050;47.324;18.792;2022-09-09T08:42:46;1.08;;;0.80;;
54143;SDS011;40050;47.324;18.792;2022-09-09T08:45:17;2.57;;;0.80;;
54143;SDS011;40050;47.324;18.792;2022-09-09T08:47:35;2.08;;;0.90;;
54143;SDS011;40050;47.324;18.792;2022-09-09T08:50:13;1.48;;;1.00;;
54143;SDS011;40050;47.324;18.792;2022-09-09T08:51:53;2.97;;;0.90;;
54143;SDS011;40050;47.324;18.792;2022-09-09T08:53:58;1.88;;;1.00;;
54143;SDS011;40050;47.324;18.792;2022-09-09T08:56:24;0.89;;;0.70;;
54143;SDS011;40050;47.324;18.792;2022-09-09T08:58:32;2.57;;;0.90;;
54143;SDS011;40050;47.324;18.792;2022-09-09T09:00:29;1.78;;;0.90;;
54143;SDS011;40050;47.324;18.792;2022-09-09T09:02:56;2.08;;;0.80;;
54143;SDS011;40050;47.324;18.792;2022-09-09T09:05:09;2.28;;;0.90;;
54143;SDS011;40050;47.324;18.792;2022-09-09T09:07:16;1.69;;;0.80;;
54143;SDS011;40050;47.324;18.792;2022-09-09T09:11:19;2.38;;;0.80;;
54143;SDS011;40050;47.324;18.792;2022-09-09T09:13:23;1.99;;;0.80;;
54143;SDS011;40050;47.324;18.792;2022-09-09T09:15:23;3.67;;;0.80;;
54143;SDS011;40050;47.324;18.792;2022-09-09T09:17:28;1.99;;;0.80;;
54143;SDS011;40050;47.324;18.792;2022-09-09T09:19:30;0.99;;;0.60;;
54143;SDS011;40050;47.324;18.792;2022-09-09T09:21:45;1.69;;;0.80;;
54143;SDS011;40050;47.324;18.792;2022-09-09T09:23:42;1.29;;;0.70;;
54143;SDS011;40050;47.324;18.792;2022-09-09T09:25:55;1.49;;;0.60;;
54143;SDS011;40050;47.324;18.792;2022-09-09T09:28:32;2.59;;;0.70;;
54143;SDS011;40050;47.324;18.792;2022-09-09T09:30:01;2.39;;;0.80;;
54143;SDS011;40050;47.324;18.792;2022-09-09T09:32:01;1.99;;;0.80;;
54143;SDS011;40050;47.324;18.792;2022-09-09T09:34:13;0.80;;;0.60;;
54143;SDS011;40050;47.324;18.792;2022-09-09T09:36:14;1.39;;;0.60;;
54143;SDS011;40050;47.324;18.792;2022-09-09T09:38:18;1.00;;;0.70;;
54143;SDS011;40050;47.324;18.792;2022-09-09T09:40:17;1.99;;;0.60;;
54143;SDS011;40050;47.324;18.792;2022-09-09T09:42:17;1.00;;;0.60;;
54143;SDS011;40050;47.324;18.792;2022-09-09T09:44:25;1.10;;;0.40;;
54143;SDS011;40050;47.324;18.792;2022-09-09T09:46:25;0.70;;;0.50;;
54143;SDS011;40050;47.324;18.792;2022-09-09T09:48:40;1.20;;;0.50;;
54143;SDS011;40050;47.324;18.792;2022-09-09T09:50:52;1.99;;;0.60;;
54143;SDS011;40050;47.324;18.792;2022-09-09T09:52:53;0.80;;;0.60;;
54143;SDS011;40050;47.324;18.792;2022-09-09T09:54:58;1.89;;;0.50;;
54143;SDS011;40050;47.324;18.792;2022-09-09T09:57:09;1.19;;;0.60;;
54143;SDS011;40050;47.324;18.792;2022-09-09T09:59:04;1.00;;;0.60;;
54143;SDS011;40050;47.324;18.792;2022-09-09T10:01:05;1.00;;;0.50;;
54143;SDS011;40050;47.324;18.792;2022-09-09T10:03:18;1.99;;;0.60;;
54143;SDS011;40050;47.324;18.792;2022-09-09T10:05:18;1.29;;;0.60;;
54143;SDS011;40050;47.324;18.792;2022-09-09T10:07:15;2.59;;;0.50;;
54143;SDS011;40050;47.324;18.792;2022-09-09T10:09:21;1.89;;;0.70;;
54143;SDS011;40050;47.324;18.792;2022-09-09T10:11:46;3.19;;;0.60;;
54143;SDS011;40050;47.324;18.792;2022-09-09T10:14:05;0.70;;;0.50;;
54143;SDS011;40050;47.324;18.792;2022-09-09T10:18:42;0.80;;;0.50;;
54143;SDS011;40050;47.324;18.792;2022-09-09T10:20:56;2.29;;;0.70;;
54143;SDS011;40050;47.324;18.792;2022-09-09T10:23:06;0.50;;;0.50;;
54143;SDS011;40050;47.324;18.792;2022-09-09T10:25:27;0.90;;;0.60;;
54143;SDS011;40050;47.324;18.792;2022-09-09T10:27:39;1.39;;;0.50;;
54143;SDS011;40050;47.324;18.792;2022-09-09T10:30:46;1.39;;;0.60;;
54143;SDS011;40050;47.324;18.792;2022-09-09T10:32:12;1.20;;;0.50;;
54143;SDS011;40050;47.324;18.792;2022-09-09T10:34:16;1.70;;;0.50;;
54143;SDS011;40050;47.324;18.792;2022-09-09T10:36:26;1.20;;;0.50;;
54143;SDS011;40050;47.324;18.792;2022-09-09T10:39:03;1.00;;;0.70;;
54143;SDS011;40050;47.324;18.792;2022-09-09T10:43:04;2.09;;;0.50;;
54143;SDS011;40050;47.324;18.792;2022-09-09T10:45:23;0.70;;;0.60;;
54143;SDS011;40050;47.324;18.792;2022-09-09T10:50:18;0.80;;;0.50;;
54143;SDS011;40050;47.324;18.792;2022-09-09T10:52:40;1.39;;;0.50;;
54143;SDS011;40050;47.324;18.792;2022-09-09T10:54:52;2.19;;;0.60;;
54143;SDS011;40050;47.324;18.792;2022-09-09T10:56:51;0.80;;;0.50;;
54143;SDS011;40050;47.324;18.792;2022-09-09T10:59:12;1.89;;;0.50;;
54143;SDS011;40050;47.324;18.792;2022-09-09T11:01:25;1.40;;;0.40;;
54143;SDS011;40050;47.324;18.792;2022-09-09T11:03:34;0.90;;;0.50;;
54143;SDS011;40050;47.324;18.792;2022-09-09T11:05:43;0.40;;;0.30;;
54143;SDS011;40050;47.324;18.792;2022-09-09T11:07:46;0.40;;;0.40;;
54143;SDS011;40050;47.324;18.792;2022-09-09T11:09:49;0.50;;;0.30;;
54143;SDS011;40050;47.324;18.792;2022-09-09T11:12:15;0.50;;;0.20;;
54143;SDS011;40050;47.324;18.792;2022-09-09T11:14:33;1.50;;;0.20;;
54143;SDS011;40050;47.324;18.792;2022-09-09T11:16:50;0.80;;;0.30;;
54143;SDS011;40050;47.324;18.792;2022-09-09T11:18:35;0.30;;;0.20;;
54143;SDS011;40050;47.324;18.792;2022-09-09T11:20:27;0.70;;;0.20;;
54143;SDS011;40050;47.324;18.792;2022-09-09T11:22:34;0.80;;;0.30;;
54143;SDS011;40050;47.324;18.792;2022-09-09T11:24:53;0.70;;;0.40;;
54143;SDS011;40050;47.324;18.792;2022-09-09T11:26:44;1.90;;;0.30;;
54143;SDS011;40050;47.324;18.792;2022-09-09T11:33:31;0.90;;;0.40;;
54143;SDS011;40050;47.324;18.792;2022-09-09T11:37:58;1.10;;;0.50;;
54143;SDS011;40050;47.324;18.792;2022-09-09T11:40:16;0.60;;;0.50;;
54143;SDS011;40050;47.324;18.792;2022-09-09T11:42:17;1.00;;;0.50;;
54143;SDS011;40050;47.324;18.792;2022-09-09T11:44:17;0.60;;;0.40;;
54143;SDS011;40050;47.324;18.792;2022-09-09T11:46:22;0.80;;;0.40;;
54143;SDS011;40050;47.324;18.792;2022-09-09T11:48:37;1.00;;;0.40;;
54143;SDS011;40050;47.324;18.792;2022-09-09T11:50:41;0.70;;;0.30;;
54143;SDS011;40050;47.324;18.792;2022-09-09T11:53:04;0.60;;;0.40;;
54143;SDS011;40050;47.324;18.792;2022-09-09T11:55:10;0.80;;;0.30;;
54143;SDS011;40050;47.324;18.792;2022-09-09T11:57:14;0.50;;;0.30;;
54143;SDS011;40050;47.324;18.792;2022-09-09T11:59:27;1.10;;;0.30;;
54143;SDS011;40050;47.324;18.792;2022-09-09T12:01:15;1.20;;;0.30;;
54143;SDS011;40050;47.324;18.792;2022-09-09T12:05:43;0.90;;;0.30;;
54143;SDS011;40050;47.324;18.792;2022-09-09T12:08:01;2.00;;;0.30;;
54143;SDS011;40050;47.324;18.792;2022-09-09T12:14:36;1.00;;;0.30;;
54143;SDS011;40050;47.324;18.792;2022-09-09T12:16:43;0.50;;;0.30;;
54143;SDS011;40050;47.324;18.792;2022-09-09T12:18:36;1.70;;;0.40;;
54143;SDS011;40050;47.324;18.792;2022-09-09T12:20:59;0.60;;;0.30;;
54143;SDS011;40050;47.324;18.792;2022-09-09T12:23:15;1.89;;;0.40;;
54143;SDS011;40050;47.324;18.792;2022-09-09T12:27:42;0.30;;;0.30;;
54143;SDS011;40050;47.324;18.792;2022-09-09T12:29:57;1.10;;;0.40;;
54143;SDS011;40050;47.324;18.792;2022-09-09T12:32:06;1.70;;;0.30;;
54143;SDS011;40050;47.324;18.792;2022-09-09T12:36:11;1.50;;;0.30;;
54143;SDS011;40050;47.324;18.792;2022-09-09T12:38:15;1.50;;;0.30;;
54143;SDS011;40050;47.324;18.792;2022-09-09T12:40:20;0.80;;;0.50;;
54143;SDS011;40050;47.324;18.792;2022-09-09T12:42:29;0.50;;;0.40;;
54143;SDS011;40050;47.324;18.792;2022-09-09T12:44:37;0.50;;;0.30;;
54143;SDS011;40050;47.324;18.792;2022-09-09T12:46:42;1.10;;;0.30;;
54143;SDS011;40050;47.324;18.792;2022-09-09T12:48:43;0.40;;;0.30;;
54143;SDS011;40050;47.324;18.792;2022-09-09T12:50:59;0.60;;;0.20;;
54143;SDS011;40050;47.324;18.792;2022-09-09T12:53:06;0.40;;;0.20;;
54143;SDS011;40050;47.324;18.792;2022-09-09T12:55:16;2.50;;;0.30;;
54143;SDS011;40050;47.324;18.792;2022-09-09T12:57:09;0.80;;;0.30;;
54143;SDS011;40050;47.324;18.792;2022-09-09T12:59:17;2.10;;;0.40;;
54143;SDS011;40050;47.324;18.792;2022-09-09T13:01:23;1.80;;;0.30;;
54143;SDS011;40050;47.324;18.792;2022-09-09T13:03:27;0.30;;;0.20;;
54143;SDS011;40050;47.324;18.792;2022-09-09T13:05:38;1.50;;;0.30;;
54143;SDS011;40050;47.324;18.792;2022-09-09T13:07:38;0.60;;;0.30;;
54143;SDS011;40050;47.324;18.792;2022-09-09T13:09:40;1.50;;;0.30;;
54143;SDS011;40050;47.324;18.792;2022-09-09T13:11:51;0.20;;;0.20;;
54143;SDS011;40050;47.324;18.792;2022-09-09T13:13:52;0.60;;;0.20;;
54143;SDS011;40050;47.324;18.792;2022-09-09T13:15:55;1.50;;;0.30;;
54143;SDS011;40050;47.324;18.792;2022-09-09T13:17:57;0.40;;;0.20;;
54143;SDS011;40050;47.324;18.792;2022-09-09T13:20:00;1.00;;;0.30;;
54143;SDS011;40050;47.324;18.792;2022-09-09T13:22:19;1.10;;;0.40;;